Laceys Spring, Alabama
Current Conditions -  °F | °C
As of 12:53 AM on Saturday 25 Oct 2014 (Local Time) from KHSV Reporting Station
Clear Clear  
Wind Chill: 50°   Ceiling: Unl
Heat Index: 50°   Visibility: 10mi
Dew Point: 43°   Wind: 0mph
Humidity: 77%   Direction: NA
Pressure: 30.09"   Gusts: NA
Location:  34.53°N, 86.6°W
Report Text: KHSV 250553Z AUTO 00000KT 10SM CLR 10/06 A3009 RMK AO2 SLP186 T01000061 10172 20094 402390089 58001
Loading
Personal Weather Stations






























Interactive Weather Map New forecast layout! Learn more

10-Day Weather Forecast

Advertisements
Track Severe Weather on mobile